createdAt,value
2019-02-08T00:02:23.675Z,100438.02
2019-02-08T00:04:55.293Z,100432.80
2019-02-08T00:07:26.318Z,100434.71
2019-02-08T00:09:57.298Z,100432.28
2019-02-08T00:12:28.588Z,100428.47
2019-02-08T00:14:59.586Z,100434.53
2019-02-08T00:17:31.092Z,100428.88
2019-02-08T00:20:02.112Z,100432.05
2019-02-08T00:22:33.092Z,100433.88
2019-02-08T00:25:05.410Z,100434.44
2019-02-08T00:27:36.405Z,100435.08
2019-02-08T00:30:12.122Z,100437.37
2019-02-08T00:32:43.117Z,100435.64
2019-02-08T00:35:14.511Z,100444.30
2019-02-08T00:37:45.813Z,100438.16
2019-02-08T00:40:17.424Z,100443.19
2019-02-08T00:42:48.382Z,100436.98
2019-02-08T00:45:19.928Z,100442.17
2019-02-08T00:47:50.965Z,100447.69
2019-02-08T00:50:23.810Z,100446.39
2019-02-08T00:52:55.218Z,100451.95
2019-02-08T00:55:26.187Z,100447.00
2019-02-08T00:57:57.308Z,100448.22
2019-02-08T01:00:28.525Z,100449.70
2019-02-08T01:02:59.773Z,100443.83
2019-02-08T01:05:31.142Z,100442.55
2019-02-08T01:08:02.089Z,100442.65
2019-02-08T01:10:33.367Z,100443.98
2019-02-08T01:13:05.195Z,100446.72
2019-02-08T01:15:36.315Z,100444.39
2019-02-08T01:18:07.444Z,100443.84
2019-02-08T01:20:38.639Z,100446.42
2019-02-08T01:23:09.778Z,100449.31
2019-02-08T01:25:40.696Z,100448.66
2019-02-08T01:28:11.717Z,100446.83
2019-02-08T01:30:42.679Z,100447.55
2019-02-08T01:33:13.611Z,100447.06
2019-02-08T01:35:44.570Z,100452.77
2019-02-08T01:38:15.463Z,100456.69
2019-02-08T01:40:46.414Z,100449.48
2019-02-08T01:43:17.776Z,100451.91
2019-02-08T01:45:48.688Z,100448.83
2019-02-08T01:48:19.674Z,100446.30
2019-02-08T01:50:50.596Z,100450.63
2019-02-08T01:53:21.482Z,100452.23
2019-02-08T01:55:52.396Z,100446.84
2019-02-08T01:58:23.313Z,100448.58
2019-02-08T02:00:54.556Z,100447.20
2019-02-08T02:03:25.503Z,100452.50
2019-02-08T02:05:56.594Z,100458.42
2019-02-08T02:08:27.570Z,100458.08
2019-02-08T02:10:58.509Z,100456.12
2019-02-08T02:13:29.528Z,100462.14
2019-02-08T02:16:00.449Z,100460.13
2019-02-08T02:18:31.420Z,100467.37
2019-02-08T02:21:02.330Z,100460.80
2019-02-08T02:23:33.568Z,100463.53
2019-02-08T02:26:04.600Z,100463.43
2019-02-08T02:28:35.824Z,100466.66
2019-02-08T02:31:06.939Z,100459.67
2019-02-08T02:33:37.873Z,100459.31
2019-02-08T02:36:08.774Z,100464.34
2019-02-08T02:38:39.716Z,100465.73
2019-02-08T02:41:10.632Z,100466.45
2019-02-08T02:43:41.625Z,100471.03
2019-02-08T02:46:12.615Z,100468.20
2019-02-08T02:48:43.520Z,100474.16
2019-02-08T02:51:14.784Z,100466.95
2019-02-08T02:53:45.994Z,100461.41
2019-02-08T02:56:16.933Z,100467.47
2019-02-08T02:58:48.241Z,100467.11
2019-02-08T03:01:19.132Z,100468.55
2019-02-08T03:03:50.085Z,100469.48
2019-02-08T03:06:20.994Z,100466.86
2019-02-08T03:08:52.407Z,100474.42
2019-02-08T03:11:23.324Z,100472.25
2019-02-08T03:13:54.253Z,100476.64
2019-02-08T03:16:25.338Z,100480.90
2019-02-08T03:18:56.236Z,100480.77
2019-02-08T03:21:27.115Z,100477.41
2019-02-08T03:23:58.072Z,100486.45
2019-02-08T03:26:28.987Z,100483.95
2019-02-08T03:29:00.229Z,100489.09
2019-02-08T03:31:31.155Z,100494.13
2019-02-08T03:34:02.102Z,100495.45
2019-02-08T03:36:33.012Z,100503.91
2019-02-08T03:39:05.405Z,100503.21
2019-02-08T03:41:36.334Z,100505.47
2019-02-08T03:44:07.249Z,100509.48
2019-02-08T03:46:38.360Z,100507.74
2019-02-08T03:49:09.456Z,100505.53
2019-02-08T03:51:40.373Z,100513.66
2019-02-08T03:54:11.707Z,100514.94
2019-02-08T03:56:42.627Z,100513.59
2019-02-08T03:59:13.821Z,100509.78
2019-02-08T04:01:44.753Z,100512.94
2019-02-08T04:04:19.056Z,100515.95
2019-02-08T04:06:49.990Z,100510.95
2019-02-08T04:09:20.882Z,100510.09
2019-02-08T04:11:51.805Z,100512.30
2019-02-08T04:14:23.006Z,100511.98
2019-02-08T04:16:53.928Z,100508.45
2019-02-08T04:19:24.933Z,100506.62
2019-02-08T04:21:55.817Z,100511.56
2019-02-08T04:24:29.891Z,100513.77
2019-02-08T04:26:59.685Z,100514.23
2019-02-08T04:29:30.644Z,100512.31
2019-02-08T04:32:01.667Z,100513.64
2019-02-08T04:34:32.574Z,100517.31
2019-02-08T04:37:03.515Z,100519.55
2019-02-08T04:39:34.482Z,100518.36
2019-02-08T04:42:05.433Z,100522.77
2019-02-08T04:44:36.376Z,100522.73
2019-02-08T04:47:07.539Z,100528.09
2019-02-08T04:49:38.424Z,100521.13
2019-02-08T04:52:09.379Z,100521.63
2019-02-08T04:54:40.265Z,100522.36
2019-02-08T04:57:11.304Z,100532.19
2019-02-08T04:59:42.193Z,100529.20
2019-02-08T05:02:13.122Z,100520.25
2019-02-08T05:04:44.130Z,100517.31
2019-02-08T05:07:15.096Z,100518.91
2019-02-08T05:09:46.037Z,100514.61
2019-02-08T05:12:17.041Z,100509.92
2019-02-08T05:14:48.039Z,100508.05
2019-02-08T05:17:19.014Z,100504.89
2019-02-08T05:19:49.908Z,100503.24
2019-02-08T05:22:20.896Z,100500.94
2019-02-08T05:24:51.811Z,100500.20
2019-02-08T05:27:22.695Z,100503.14
2019-02-08T05:29:53.625Z,100502.91
2019-02-08T05:32:24.538Z,100504.47
2019-02-08T05:34:55.505Z,100498.05
2019-02-08T05:37:26.397Z,100509.92
2019-02-08T05:39:57.299Z,100505.25
2019-02-08T05:42:28.502Z,100506.61
2019-02-08T05:44:59.798Z,100507.87
2019-02-08T05:47:30.724Z,100511.23
2019-02-08T05:50:01.639Z,100513.20
2019-02-08T05:52:32.620Z,100508.20
2019-02-08T05:55:03.738Z,100510.64
2019-02-08T05:57:34.954Z,100506.00
2019-02-08T06:00:15.586Z,100506.45
2019-02-08T06:02:46.522Z,100511.51
2019-02-08T06:05:18.857Z,100508.38
2019-02-08T06:07:49.784Z,100504.02
2019-02-08T06:10:21.134Z,100499.45
2019-02-08T06:12:52.157Z,100501.18
2019-02-08T06:15:23.171Z,100504.05
2019-02-08T06:17:54.239Z,100502.30
2019-02-08T06:20:26.037Z,100498.58
2019-02-08T06:22:57.065Z,100502.12
2019-02-08T06:25:28.225Z,100502.45
2019-02-08T06:27:59.783Z,100505.47
2019-02-08T06:30:30.815Z,100509.20
2019-02-08T06:33:01.811Z,100513.73
2019-02-08T06:35:32.927Z,100499.89
2019-02-08T06:38:04.147Z,100501.20
2019-02-08T06:40:36.111Z,100509.16
2019-02-08T06:43:07.397Z,100510.48
2019-02-08T06:45:39.027Z,100503.25
2019-02-08T06:48:11.954Z,100497.16
2019-02-08T06:50:42.871Z,100503.58
2019-02-08T06:53:13.939Z,100485.86
2019-02-08T06:55:44.905Z,100490.99
2019-02-08T06:58:25.666Z,100496.08
2019-02-08T07:01:14.388Z,100498.67
2019-02-08T07:03:54.486Z,100498.45
2019-02-08T07:06:42.755Z,100499.43
2019-02-08T07:09:32.951Z,100506.17
2019-02-08T07:12:21.561Z,100511.08
2019-02-08T07:15:08.227Z,100512.68
2019-02-08T07:17:58.073Z,100508.06
2019-02-08T07:20:59.682Z,100501.54
2019-02-08T07:23:44.087Z,100505.37
2019-02-08T07:26:39.895Z,100507.09
2019-02-08T07:29:28.858Z,100511.00
2019-02-08T07:32:24.636Z,100509.05
2019-02-08T07:35:27.099Z,100507.55
2019-02-08T07:38:21.783Z,100509.95
2019-02-08T07:41:21.476Z,100505.50
2019-02-08T07:44:06.569Z,100518.91
2019-02-08T07:47:03.188Z,100509.30
2019-02-08T07:49:45.065Z,100507.23
2019-02-08T07:52:38.446Z,100508.38
2019-02-08T07:55:27.590Z,100511.22
2019-02-08T07:58:04.992Z,100507.34
2019-02-08T08:00:51.955Z,100502.20
2019-02-08T08:03:44.653Z,100505.86
2019-02-08T08:06:43.952Z,100499.88
2019-02-08T08:09:28.749Z,100506.00
2019-02-08T08:12:28.224Z,100502.62
2019-02-08T08:15:29.247Z,100505.14
2019-02-08T08:18:28.534Z,100503.42
2019-02-08T08:21:18.672Z,100511.35
2019-02-08T08:24:30.239Z,100513.09
2019-02-08T08:27:27.293Z,100513.92
2019-02-08T08:30:18.165Z,100514.23
2019-02-08T08:33:05.576Z,100520.66
2019-02-08T08:36:27.600Z,100519.85
2019-02-08T08:40:14.250Z,100521.02
2019-02-08T08:43:43.846Z,100517.89
2019-02-08T08:46:57.611Z,100513.50
2019-02-08T08:50:27.410Z,100519.00
2019-02-08T08:53:47.036Z,100516.08
2019-02-08T08:57:12.224Z,100510.58
2019-02-08T09:00:54.238Z,100506.55
2019-02-08T09:04:41.903Z,100500.30
2019-02-08T09:08:19.562Z,100494.43
2019-02-08T09:11:57.058Z,100493.25
2019-02-08T09:15:39.048Z,100492.02
2019-02-08T09:19:11.221Z,100482.58
2019-02-08T09:22:43.344Z,100488.97
2019-02-08T09:25:50.053Z,100485.88
2019-02-08T09:29:19.269Z,100488.56
2019-02-08T09:32:37.304Z,100485.88
2019-02-08T09:36:11.098Z,100483.69
2019-02-08T09:39:31.213Z,100477.77
2019-02-08T09:43:07.583Z,100478.25
2019-02-08T09:46:56.344Z,100466.70
2019-02-08T09:50:23.088Z,100475.53
2019-02-08T09:53:57.716Z,100471.58
2019-02-08T09:57:39.008Z,100467.83
2019-02-08T10:01:07.648Z,100467.99
2019-02-08T10:04:28.036Z,100472.44
2019-02-08T10:07:51.640Z,100480.02
2019-02-08T10:11:20.750Z,100473.42
2019-02-08T10:14:40.986Z,100474.19
2019-02-08T10:18:06.596Z,100476.73
2019-02-08T10:21:43.846Z,100472.39
2019-02-08T10:25:19.074Z,100474.98
2019-02-08T10:28:51.241Z,100473.01
2019-02-08T10:32:15.861Z,100479.00
2019-02-08T10:35:37.456Z,100462.67
2019-02-08T10:39:09.828Z,100473.12
2019-02-08T10:42:41.218Z,100467.87
2019-02-08T10:46:02.459Z,100464.86
2019-02-08T10:49:27.037Z,100462.81
2019-02-08T10:53:15.718Z,100456.12
2019-02-08T10:56:40.554Z,100446.97
2019-02-08T11:00:12.019Z,100447.88
2019-02-08T11:03:44.879Z,100440.58
2019-02-08T11:11:17.315Z,100427.08
2019-02-08T11:14:49.944Z,100422.06
2019-02-08T11:18:36.426Z,100429.50
2019-02-08T11:21:08.132Z,100422.45
2019-02-08T11:23:39.049Z,100417.48
2019-02-08T11:26:10.644Z,100407.72
2019-02-08T11:28:41.671Z,100420.00
2019-02-08T11:31:12.644Z,100409.09
2019-02-08T11:33:43.622Z,100410.91
2019-02-08T11:36:14.716Z,100408.31
2019-02-08T11:38:45.695Z,100400.86
2019-02-08T11:41:16.757Z,100401.61
2019-02-08T11:43:47.634Z,100393.64
2019-02-08T11:46:25.742Z,100389.23
2019-02-08T11:48:56.638Z,100381.54
2019-02-08T11:51:27.870Z,100387.84
2019-02-08T11:53:58.793Z,100387.91
2019-02-08T11:56:30.143Z,100400.34
2019-02-08T11:59:01.194Z,100388.03
2019-02-08T12:01:37.373Z,100385.29
2019-02-08T12:04:09.110Z,100375.82
2019-02-08T12:06:40.421Z,100377.04
2019-02-08T12:09:18.294Z,100379.04
2019-02-08T12:11:49.721Z,100372.37
2019-02-08T12:14:20.925Z,100366.72
2019-02-08T12:16:52.430Z,100370.10
2019-02-08T12:19:23.321Z,100362.92
2019-02-08T12:21:54.256Z,100362.42
2019-02-08T12:24:25.560Z,100360.46
2019-02-08T12:26:56.520Z,100354.45
2019-02-08T12:29:27.491Z,100353.84
2019-02-08T12:31:59.394Z,100355.94
2019-02-08T12:34:30.338Z,100357.16
2019-02-08T12:37:01.249Z,100355.52
2019-02-08T12:39:32.172Z,100353.78
2019-02-08T12:42:03.515Z,100350.14
2019-02-08T12:44:34.402Z,100345.55
2019-02-08T12:47:05.480Z,100351.83
2019-02-08T12:49:36.382Z,100344.30
2019-02-08T12:52:07.259Z,100343.34
2019-02-08T12:54:38.536Z,100344.17
2019-02-08T12:57:09.437Z,100341.27
2019-02-08T12:59:40.401Z,100343.41
2019-02-08T13:02:11.326Z,100346.83
2019-02-08T13:04:42.204Z,100347.93
2019-02-08T13:07:13.416Z,100346.41
2019-02-08T13:09:44.307Z,100342.45
2019-02-08T13:12:15.242Z,100335.24
2019-02-08T13:14:46.124Z,100323.27
2019-02-08T13:17:17.292Z,100316.30
2019-02-08T13:19:48.243Z,100321.33
2019-02-08T13:22:19.438Z,100312.53
2019-02-08T13:24:50.433Z,100313.89
2019-02-08T13:27:21.329Z,100302.47
2019-02-08T13:29:52.225Z,100294.31
2019-02-08T13:32:23.866Z,100276.95
2019-02-08T13:34:54.773Z,100274.91
2019-02-08T13:37:25.735Z,100270.77
2019-02-08T13:39:56.688Z,100277.41
2019-02-08T13:42:27.593Z,100265.61
2019-02-08T13:44:58.550Z,100259.91
2019-02-08T13:47:29.432Z,100260.28
2019-02-08T13:50:00.785Z,100265.06
2019-02-08T13:52:32.241Z,100258.76
2019-02-08T13:55:03.180Z,100260.73
2019-02-08T13:57:34.118Z,100259.42
2019-02-08T14:00:06.580Z,100257.03
2019-02-08T14:02:37.592Z,100262.70
2019-02-08T14:05:09.540Z,100265.91
2019-02-08T14:07:40.753Z,100256.95
2019-02-08T14:10:13.641Z,100265.73
2019-02-08T14:12:44.546Z,100261.57
2019-02-08T14:15:16.918Z,100258.98
2019-02-08T14:17:48.134Z,100254.88
2019-02-08T14:20:22.359Z,100259.30
2019-02-08T14:22:53.675Z,100252.17
2019-02-08T14:25:25.221Z,100242.66
2019-02-08T14:27:56.495Z,100242.70
2019-02-08T14:30:34.035Z,100233.89
2019-02-08T14:33:05.274Z,100228.40
2019-02-08T14:35:36.509Z,100229.03
2019-02-08T14:38:12.189Z,100230.25
2019-02-08T14:40:43.214Z,100234.83
2019-02-08T14:43:14.124Z,100235.72
2019-02-08T14:45:45.055Z,100230.98
2019-02-08T14:48:16.553Z,100220.13
2019-02-08T14:50:47.907Z,100218.64
2019-02-08T14:53:18.851Z,100211.63
2019-02-08T14:55:49.782Z,100213.28
2019-02-08T14:58:20.975Z,100206.66
2019-02-08T15:00:51.952Z,100203.89
2019-02-08T15:03:22.877Z,100199.96
2019-02-08T15:05:53.753Z,100197.59
2019-02-08T15:08:24.664Z,100193.09
2019-02-08T15:10:55.650Z,100195.52
2019-02-08T15:13:28.917Z,100200.02
2019-02-08T15:15:59.886Z,100201.46
2019-02-08T15:18:32.610Z,100203.84
2019-02-08T15:21:03.773Z,100199.38
2019-02-08T15:23:35.022Z,100201.58
2019-02-08T15:26:06.009Z,100197.14
2019-02-08T15:28:36.936Z,100188.64
2019-02-08T15:31:07.878Z,100187.52
2019-02-08T15:33:38.866Z,100178.64
2019-02-08T15:36:10.160Z,100171.45
2019-02-08T15:38:41.091Z,100168.86
2019-02-08T15:41:12.255Z,100171.02
2019-02-08T15:43:43.189Z,100168.55
2019-02-08T15:46:14.209Z,100164.44
2019-02-08T15:48:45.238Z,100169.44
2019-02-08T15:51:16.231Z,100163.08
2019-02-08T15:53:47.272Z,100155.09
2019-02-08T15:56:18.761Z,100158.60
2019-02-08T15:58:49.984Z,100154.02
2019-02-08T16:01:21.247Z,100160.49
2019-02-08T16:03:52.246Z,100157.80
2019-02-08T16:06:23.311Z,100160.81
2019-02-08T16:08:54.635Z,100140.95
2019-02-08T16:11:25.607Z,100142.13
2019-02-08T16:13:57.207Z,100135.14
2019-02-08T16:16:28.099Z,100131.66
2019-02-08T16:18:59.074Z,100130.44
2019-02-08T16:21:30.149Z,100134.14
2019-02-08T16:24:01.125Z,100142.86
2019-02-08T16:26:32.797Z,100140.85
2019-02-08T16:29:03.889Z,100137.33
2019-02-08T16:31:34.883Z,100144.97
2019-02-08T16:34:06.476Z,100141.32
2019-02-08T16:36:37.410Z,100141.25
2019-02-08T16:39:11.882Z,100133.11
2019-02-08T16:41:42.783Z,100132.36
2019-02-08T16:44:14.038Z,100124.30
2019-02-08T16:46:45.163Z,100123.12
2019-02-08T16:49:16.118Z,100116.98
2019-02-08T16:51:47.569Z,100123.83
2019-02-08T16:54:18.926Z,100123.91
2019-02-08T16:56:49.894Z,100125.52
2019-02-08T16:59:20.843Z,100121.66
2019-02-08T17:01:52.074Z,100106.95
2019-02-08T17:04:23.050Z,100096.73
2019-02-08T17:06:54.031Z,100093.39
2019-02-08T17:09:25.309Z,100095.75
2019-02-08T17:11:56.304Z,100095.41
2019-02-08T17:14:27.283Z,100098.41
2019-02-08T17:16:58.348Z,100088.16
2019-02-08T17:19:29.567Z,100086.62
2019-02-08T17:22:00.817Z,100081.22
2019-02-08T17:24:31.754Z,100080.60
2019-02-08T17:27:02.690Z,100074.05
2019-02-08T17:29:33.700Z,100065.56
2019-02-08T17:32:04.598Z,100063.47
2019-02-08T17:34:35.648Z,100055.84
2019-02-08T17:37:06.644Z,100058.81
2019-02-08T17:39:37.557Z,100049.36
2019-02-08T17:42:08.605Z,100051.09
2019-02-08T17:44:39.809Z,100052.70
2019-02-08T17:47:10.767Z,100032.75
2019-02-08T17:49:41.935Z,100021.30
2019-02-08T17:52:12.877Z,100008.86
2019-02-08T17:54:44.171Z,99999.97
2019-02-08T17:57:15.085Z,99992.54
2019-02-08T17:59:46.110Z,99980.06
2019-02-08T18:02:17.319Z,99986.59
2019-02-08T18:04:48.557Z,99992.43
2019-02-08T18:07:20.140Z,99992.43
2019-02-08T18:09:51.400Z,99981.59
2019-02-08T18:12:22.681Z,99977.64
2019-02-08T18:14:53.625Z,99980.61
2019-02-08T18:17:24.936Z,99978.92
2019-02-08T18:19:57.736Z,99981.52
2019-02-08T18:22:28.677Z,99972.23
2019-02-08T18:24:59.694Z,99986.20
2019-02-08T18:27:30.915Z,99968.21
2019-02-08T18:30:01.820Z,99968.13
2019-02-08T18:32:32.875Z,99972.94
2019-02-08T18:35:04.022Z,99976.81
2019-02-08T18:37:35.370Z,99967.62
2019-02-08T18:40:09.005Z,99960.34
2019-02-08T18:42:39.987Z,99970.43
2019-02-08T18:45:15.057Z,99964.91
2019-02-08T18:47:46.410Z,99955.87
2019-02-08T18:50:25.042Z,99946.60
2019-02-08T18:52:56.412Z,99943.78
2019-02-08T18:55:28.999Z,99941.80
2019-02-08T18:58:00.295Z,99940.06
2019-02-08T19:00:39.823Z,99933.51
2019-02-08T19:03:07.836Z,99924.78
2019-02-08T19:05:39.364Z,99921.44
2019-02-08T19:08:10.896Z,99921.83
2019-02-08T19:10:41.870Z,99916.66
2019-02-08T19:13:13.192Z,99918.86
2019-02-08T19:15:44.298Z,99914.16
2019-02-08T19:18:15.557Z,99910.35
2019-02-08T19:20:46.494Z,99905.43
2019-02-08T19:23:17.487Z,99907.70
2019-02-08T19:25:48.739Z,99907.11
2019-02-08T19:28:26.395Z,99896.92
2019-02-08T19:30:52.540Z,99894.03
2019-02-08T19:33:23.889Z,99889.53
2019-02-08T19:35:54.837Z,99891.23
2019-02-08T19:38:26.326Z,99882.80
2019-02-08T19:40:59.586Z,99875.81
2019-02-08T19:43:30.538Z,99874.44
2019-02-08T19:46:01.462Z,99871.31
2019-02-08T19:48:32.856Z,99870.33
2019-02-08T19:51:23.956Z,99870.18
2019-02-08T19:53:55.727Z,99864.24
2019-02-08T19:56:27.791Z,99865.09
2019-02-08T19:59:01.355Z,99863.66
2019-02-08T20:01:32.423Z,99860.24
2019-02-08T20:04:03.790Z,99858.05
2019-02-08T20:06:35.211Z,99853.55
2019-02-08T20:09:10.769Z,99847.09
2019-02-08T20:11:43.023Z,99836.39
2019-02-08T20:14:14.740Z,99836.77
2019-02-08T20:16:49.483Z,99831.08
2019-02-08T20:19:20.583Z,99819.05
2019-02-08T20:21:53.819Z,99819.00
2019-02-08T20:24:28.947Z,99807.95
2019-02-08T20:27:00.740Z,99805.15
2019-02-08T20:29:31.905Z,99803.00
2019-02-08T20:32:02.882Z,99801.36
2019-02-08T20:34:33.841Z,99799.94
2019-02-08T20:37:13.091Z,99792.67
2019-02-08T20:39:44.029Z,99790.56
2019-02-08T20:42:17.863Z,99791.11
2019-02-08T20:44:49.147Z,99784.88
2019-02-08T20:47:22.755Z,99782.95
2019-02-08T20:49:56.804Z,99770.41
2019-02-08T20:52:28.252Z,99773.08
2019-02-08T20:54:59.264Z,99768.66
2019-02-08T20:57:30.279Z,99765.20
2019-02-08T21:00:01.618Z,99764.05
2019-02-08T21:02:33.582Z,99773.21
2019-02-08T21:05:05.503Z,99764.34
2019-02-08T21:07:36.452Z,99762.41
2019-02-08T21:10:08.869Z,99767.53
2019-02-08T21:12:40.112Z,99755.13
2019-02-08T21:15:12.661Z,99755.59
2019-02-08T21:17:44.240Z,99750.91
2019-02-08T21:20:15.873Z,99748.89
2019-02-08T21:22:46.908Z,99740.45
2019-02-08T21:25:25.045Z,99736.48
2019-02-08T21:27:56.514Z,99731.83
2019-02-08T21:30:28.092Z,99731.31
2019-02-08T21:32:59.665Z,99728.81
2019-02-08T21:35:31.305Z,99728.22
2019-02-08T21:38:03.568Z,99717.89
2019-02-08T21:40:34.605Z,99715.69
2019-02-08T21:43:06.328Z,99713.41
2019-02-08T21:45:39.614Z,99699.25
2019-02-08T21:48:12.357Z,99703.13
2019-02-08T21:50:43.685Z,99688.44
2019-02-08T21:53:15.021Z,99677.81
2019-02-08T21:55:46.253Z,99668.59
2019-02-08T21:58:17.234Z,99671.36
2019-02-08T22:00:48.564Z,99660.03
2019-02-08T22:03:20.106Z,99661.55
2019-02-08T22:06:05.075Z,99665.10
2019-02-08T22:08:36.074Z,99664.05
2019-02-08T22:11:07.660Z,99669.94
2019-02-08T22:13:39.113Z,99667.09
2019-02-08T22:16:10.211Z,99663.84
2019-02-08T22:18:41.505Z,99658.76
2019-02-08T22:21:12.548Z,99659.19
2019-02-08T22:23:43.587Z,99661.12
2019-02-08T22:26:14.944Z,99664.09
2019-02-08T22:28:46.178Z,99656.14
2019-02-08T22:31:17.252Z,99655.97
2019-02-08T22:33:48.839Z,99652.55
2019-02-08T22:36:20.843Z,99652.16
2019-02-08T22:38:51.737Z,99654.94
2019-02-08T22:41:22.638Z,99651.55
2019-02-08T22:43:53.622Z,99651.64
2019-02-08T22:46:24.512Z,99646.27
2019-02-08T22:48:55.475Z,99634.60
2019-02-08T22:51:26.422Z,99634.16
2019-02-08T22:53:57.490Z,99635.15
2019-02-08T22:56:28.384Z,99625.47
2019-02-08T22:58:59.625Z,99630.49
2019-02-08T23:01:36.646Z,99629.41
2019-02-08T23:04:09.233Z,99625.73
2019-02-08T23:06:44.788Z,99609.59
2019-02-08T23:09:24.483Z,99598.94
2019-02-08T23:11:55.368Z,99603.34
2019-02-08T23:14:26.283Z,99594.95
2019-02-08T23:16:57.202Z,99593.30
2019-02-08T23:19:28.107Z,99594.02
2019-02-08T23:21:59.108Z,99591.81
2019-02-08T23:24:30.305Z,99587.84
2019-02-08T23:27:01.267Z,99562.22
2019-02-08T23:29:32.188Z,99566.00
2019-02-08T23:32:03.101Z,99548.21
2019-02-08T23:34:34.222Z,99534.48
2019-02-08T23:37:05.777Z,99517.48
2019-02-08T23:39:37.047Z,99519.25
2019-02-08T23:42:08.179Z,99518.22
2019-02-08T23:44:39.101Z,99509.36
2019-02-08T23:47:10.242Z,99510.41
2019-02-08T23:49:41.133Z,99505.44
2019-02-08T23:52:12.059Z,99515.30
2019-02-08T23:54:42.988Z,99512.71
2019-02-08T23:57:13.896Z,99516.41
2019-02-08T23:59:44.885Z,99520.47
